sensor_id;sensor_type;location;lat;lon;timestamp;temperature;humidity
41630;DHT22;27322;49.488;8.480;2022-10-16T00:01:15;16.40;99.90
41630;DHT22;27322;49.488;8.480;2022-10-16T00:03:42;16.40;99.90
41630;DHT22;27322;49.488;8.480;2022-10-16T00:06:09;16.40;99.90
41630;DHT22;27322;49.488;8.480;2022-10-16T00:08:36;16.40;99.90
41630;DHT22;27322;49.488;8.480;2022-10-16T00:11:03;16.40;99.90
41630;DHT22;27322;49.488;8.480;2022-10-16T00:13:29;16.40;99.90
41630;DHT22;27322;49.488;8.480;2022-10-16T00:15:57;16.40;99.90
41630;DHT22;27322;49.488;8.480;2022-10-16T00:18:23;16.40;99.90
41630;DHT22;27322;49.488;8.480;2022-10-16T00:20:49;16.40;99.90
41630;DHT22;27322;49.488;8.480;2022-10-16T00:23:14;16.40;99.90
41630;DHT22;27322;49.488;8.480;2022-10-16T00:25:40;16.40;99.90
41630;DHT22;27322;49.488;8.480;2022-10-16T00:28:06;16.30;99.90
41630;DHT22;27322;49.488;8.480;2022-10-16T00:30:31;16.40;99.90
41630;DHT22;27322;49.488;8.480;2022-10-16T00:32:57;16.30;99.90
41630;DHT22;27322;49.488;8.480;2022-10-16T00:35:22;16.30;99.90
41630;DHT22;27322;49.488;8.480;2022-10-16T00:37:48;16.30;99.90
41630;DHT22;27322;49.488;8.480;2022-10-16T00:40:14;16.30;99.90
41630;DHT22;27322;49.488;8.480;2022-10-16T00:42:39;16.30;99.90
41630;DHT22;27322;49.488;8.480;2022-10-16T00:45:06;16.30;99.90
41630;DHT22;27322;49.488;8.480;2022-10-16T00:47:41;16.40;99.90
41630;DHT22;27322;49.488;8.480;2022-10-16T00:50:24;16.30;99.90
41630;DHT22;27322;49.488;8.480;2022-10-16T00:52:52;16.30;99.90
41630;DHT22;27322;49.488;8.480;2022-10-16T00:55:18;16.30;99.90
41630;DHT22;27322;49.488;8.480;2022-10-16T00:57:45;16.30;99.90
41630;DHT22;27322;49.488;8.480;2022-10-16T01:00:16;16.30;99.90
41630;DHT22;27322;49.488;8.480;2022-10-16T01:02:42;16.30;99.90
41630;DHT22;27322;49.488;8.480;2022-10-16T01:05:08;16.40;99.90
41630;DHT22;27322;49.488;8.480;2022-10-16T01:07:45;16.30;99.90
41630;DHT22;27322;49.488;8.480;2022-10-16T01:13:10;16.40;99.90
41630;DHT22;27322;49.488;8.480;2022-10-16T01:15:45;16.40;99.90
41630;DHT22;27322;49.488;8.480;2022-10-16T01:23:21;16.40;99.90
41630;DHT22;27322;49.488;8.480;2022-10-16T01:28:44;16.30;99.90
41630;DHT22;27322;49.488;8.480;2022-10-16T01:31:15;16.30;99.90
41630;DHT22;27322;49.488;8.480;2022-10-16T01:33:45;16.40;99.90
41630;DHT22;27322;49.488;8.480;2022-10-16T01:36:35;16.40;99.90
41630;DHT22;27322;49.488;8.480;2022-10-16T01:39:03;16.40;99.90
41630;DHT22;27322;49.488;8.480;2022-10-16T01:41:45;16.40;99.90
41630;DHT22;27322;49.488;8.480;2022-10-16T01:44:25;16.40;99.90
41630;DHT22;27322;49.488;8.480;2022-10-16T01:46:53;16.40;99.90
41630;DHT22;27322;49.488;8.480;2022-10-16T01:49:21;16.40;99.90
41630;DHT22;27322;49.488;8.480;2022-10-16T01:51:52;16.30;99.90
41630;DHT22;27322;49.488;8.480;2022-10-16T01:54:20;16.30;99.90
41630;DHT22;27322;49.488;8.480;2022-10-16T01:56:50;16.30;99.90
41630;DHT22;27322;49.488;8.480;2022-10-16T01:59:19;16.40;99.90
41630;DHT22;27322;49.488;8.480;2022-10-16T02:01:48;16.40;99.90
41630;DHT22;27322;49.488;8.480;2022-10-16T02:04:29;16.30;99.90
41630;DHT22;27322;49.488;8.480;2022-10-16T02:06:56;16.40;99.90
41630;DHT22;27322;49.488;8.480;2022-10-16T02:09:22;16.30;99.90
41630;DHT22;27322;49.488;8.480;2022-10-16T02:11:48;16.30;99.90
41630;DHT22;27322;49.488;8.480;2022-10-16T02:14:15;16.30;99.90
41630;DHT22;27322;49.488;8.480;2022-10-16T02:16:44;16.30;99.90
41630;DHT22;27322;49.488;8.480;2022-10-16T02:19:11;16.30;99.90
41630;DHT22;27322;49.488;8.480;2022-10-16T02:27:11;16.30;99.90
41630;DHT22;27322;49.488;8.480;2022-10-16T02:29:47;16.40;99.90
41630;DHT22;27322;49.488;8.480;2022-10-16T02:32:21;16.30;99.90
41630;DHT22;27322;49.488;8.480;2022-10-16T02:34:49;16.30;99.90
41630;DHT22;27322;49.488;8.480;2022-10-16T02:37:16;16.30;99.90
41630;DHT22;27322;49.488;8.480;2022-10-16T02:39:43;16.30;99.90
41630;DHT22;27322;49.488;8.480;2022-10-16T02:42:13;16.30;99.90
41630;DHT22;27322;49.488;8.480;2022-10-16T02:44:39;16.30;99.90
41630;DHT22;27322;49.488;8.480;2022-10-16T02:47:05;16.30;99.90
41630;DHT22;27322;49.488;8.480;2022-10-16T02:49:30;16.40;99.90
41630;DHT22;27322;49.488;8.480;2022-10-16T02:51:56;16.40;99.90
41630;DHT22;27322;49.488;8.480;2022-10-16T02:54:22;16.40;99.90
41630;DHT22;27322;49.488;8.480;2022-10-16T02:56:47;16.40;99.90
41630;DHT22;27322;49.488;8.480;2022-10-16T02:59:13;16.30;99.90
41630;DHT22;27322;49.488;8.480;2022-10-16T03:01:38;16.40;99.90
41630;DHT22;27322;49.488;8.480;2022-10-16T03:04:04;16.30;99.90
41630;DHT22;27322;49.488;8.480;2022-10-16T03:06:29;16.30;99.90
41630;DHT22;27322;49.488;8.480;2022-10-16T03:08:55;16.40;99.90
41630;DHT22;27322;49.488;8.480;2022-10-16T03:11:21;16.30;99.90
41630;DHT22;27322;49.488;8.480;2022-10-16T03:13:46;16.30;99.90
41630;DHT22;27322;49.488;8.480;2022-10-16T03:16:12;16.30;99.90
41630;DHT22;27322;49.488;8.480;2022-10-16T03:18:37;16.30;99.90
41630;DHT22;27322;49.488;8.480;2022-10-16T03:21:03;16.30;99.90
41630;DHT22;27322;49.488;8.480;2022-10-16T03:23:28;16.30;99.90
41630;DHT22;27322;49.488;8.480;2022-10-16T03:25:54;16.30;99.90
41630;DHT22;27322;49.488;8.480;2022-10-16T03:28:20;16.30;99.90
41630;DHT22;27322;49.488;8.480;2022-10-16T03:30:45;16.30;99.90
41630;DHT22;27322;49.488;8.480;2022-10-16T03:33:11;16.30;99.90
41630;DHT22;27322;49.488;8.480;2022-10-16T03:35:36;16.30;99.90
41630;DHT22;27322;49.488;8.480;2022-10-16T03:38:02;16.30;99.90
41630;DHT22;27322;49.488;8.480;2022-10-16T03:40:28;16.30;99.90
41630;DHT22;27322;49.488;8.480;2022-10-16T03:42:53;16.30;99.90
41630;DHT22;27322;49.488;8.480;2022-10-16T03:45:23;16.30;99.90
41630;DHT22;27322;49.488;8.480;2022-10-16T03:47:48;16.30;99.90
41630;DHT22;27322;49.488;8.480;2022-10-16T03:50:14;16.30;99.90
41630;DHT22;27322;49.488;8.480;2022-10-16T03:52:40;16.30;99.90
41630;DHT22;27322;49.488;8.480;2022-10-16T03:55:06;16.30;99.90
41630;DHT22;27322;49.488;8.480;2022-10-16T03:57:32;16.30;99.90
41630;DHT22;27322;49.488;8.480;2022-10-16T03:59:57;16.30;99.90
41630;DHT22;27322;49.488;8.480;2022-10-16T04:02:23;16.30;99.90
41630;DHT22;27322;49.488;8.480;2022-10-16T04:04:49;16.30;99.90
41630;DHT22;27322;49.488;8.480;2022-10-16T04:07:14;16.40;99.90
41630;DHT22;27322;49.488;8.480;2022-10-16T04:09:40;16.40;99.90
41630;DHT22;27322;49.488;8.480;2022-10-16T04:12:05;16.40;99.90
41630;DHT22;27322;49.488;8.480;2022-10-16T04:14:31;16.40;99.90
41630;DHT22;27322;49.488;8.480;2022-10-16T04:16:56;16.40;99.90
41630;DHT22;27322;49.488;8.480;2022-10-16T04:19:22;16.40;99.90
41630;DHT22;27322;49.488;8.480;2022-10-16T04:21:48;16.40;99.90
41630;DHT22;27322;49.488;8.480;2022-10-16T04:24:13;16.40;99.90
41630;DHT22;27322;49.488;8.480;2022-10-16T04:26:39;16.40;99.90
41630;DHT22;27322;49.488;8.480;2022-10-16T04:29:04;16.40;99.90
41630;DHT22;27322;49.488;8.480;2022-10-16T04:31:31;16.40;99.90
41630;DHT22;27322;49.488;8.480;2022-10-16T04:33:56;16.40;99.90
41630;DHT22;27322;49.488;8.480;2022-10-16T04:36:22;16.40;99.90
41630;DHT22;27322;49.488;8.480;2022-10-16T04:38:48;16.40;99.90
41630;DHT22;27322;49.488;8.480;2022-10-16T04:41:13;16.40;99.90
41630;DHT22;27322;49.488;8.480;2022-10-16T04:43:39;16.40;99.90
41630;DHT22;27322;49.488;8.480;2022-10-16T04:46:04;16.40;99.90
41630;DHT22;27322;49.488;8.480;2022-10-16T04:48:31;16.40;99.90
41630;DHT22;27322;49.488;8.480;2022-10-16T04:50:56;16.40;99.90
41630;DHT22;27322;49.488;8.480;2022-10-16T04:53:22;16.30;99.90
41630;DHT22;27322;49.488;8.480;2022-10-16T04:55:49;16.30;99.90
41630;DHT22;27322;49.488;8.480;2022-10-16T04:58:15;16.30;99.90
41630;DHT22;27322;49.488;8.480;2022-10-16T05:00:40;16.30;99.90
41630;DHT22;27322;49.488;8.480;2022-10-16T05:03:06;16.30;99.90
41630;DHT22;27322;49.488;8.480;2022-10-16T05:05:34;16.30;99.90
41630;DHT22;27322;49.488;8.480;2022-10-16T05:08:00;16.30;99.90
41630;DHT22;27322;49.488;8.480;2022-10-16T05:10:26;16.30;99.90
41630;DHT22;27322;49.488;8.480;2022-10-16T05:12:51;16.30;99.90
41630;DHT22;27322;49.488;8.480;2022-10-16T05:15:17;16.20;99.90
41630;DHT22;27322;49.488;8.480;2022-10-16T05:17:43;16.20;99.90
41630;DHT22;27322;49.488;8.480;2022-10-16T05:20:09;16.20;99.90
41630;DHT22;27322;49.488;8.480;2022-10-16T05:22:35;16.20;99.90
41630;DHT22;27322;49.488;8.480;2022-10-16T05:25:00;16.20;99.90
41630;DHT22;27322;49.488;8.480;2022-10-16T05:27:26;16.20;99.90
41630;DHT22;27322;49.488;8.480;2022-10-16T05:29:51;16.20;99.90
41630;DHT22;27322;49.488;8.480;2022-10-16T05:32:18;16.30;99.90
41630;DHT22;27322;49.488;8.480;2022-10-16T05:34:44;16.30;99.90
41630;DHT22;27322;49.488;8.480;2022-10-16T05:37:11;16.30;99.90
41630;DHT22;27322;49.488;8.480;2022-10-16T05:39:37;16.30;99.90
41630;DHT22;27322;49.488;8.480;2022-10-16T05:42:03;16.20;99.90
41630;DHT22;27322;49.488;8.480;2022-10-16T05:44:29;16.30;99.90
41630;DHT22;27322;49.488;8.480;2022-10-16T05:46:55;16.30;99.90
41630;DHT22;27322;49.488;8.480;2022-10-16T05:49:20;16.30;99.90
41630;DHT22;27322;49.488;8.480;2022-10-16T05:51:46;16.40;99.90
41630;DHT22;27322;49.488;8.480;2022-10-16T05:54:12;16.40;99.90
41630;DHT22;27322;49.488;8.480;2022-10-16T05:56:37;16.40;99.90
41630;DHT22;27322;49.488;8.480;2022-10-16T05:59:04;16.40;99.90
41630;DHT22;27322;49.488;8.480;2022-10-16T06:01:30;16.40;99.90
41630;DHT22;27322;49.488;8.480;2022-10-16T06:03:56;16.50;99.90
41630;DHT22;27322;49.488;8.480;2022-10-16T06:06:24;16.50;99.90
41630;DHT22;27322;49.488;8.480;2022-10-16T06:08:51;16.40;99.90
41630;DHT22;27322;49.488;8.480;2022-10-16T06:11:20;16.50;99.90
41630;DHT22;27322;49.488;8.480;2022-10-16T06:13:54;16.50;99.90
41630;DHT22;27322;49.488;8.480;2022-10-16T06:16:21;16.50;99.90
41630;DHT22;27322;49.488;8.480;2022-10-16T06:18:47;16.50;99.90
41630;DHT22;27322;49.488;8.480;2022-10-16T06:21:23;16.50;99.90
41630;DHT22;27322;49.488;8.480;2022-10-16T06:23:53;16.50;99.90
41630;DHT22;27322;49.488;8.480;2022-10-16T06:26:20;16.50;99.90
41630;DHT22;27322;49.488;8.480;2022-10-16T06:28:47;16.50;99.90
41630;DHT22;27322;49.488;8.480;2022-10-16T06:31:13;16.50;99.90
41630;DHT22;27322;49.488;8.480;2022-10-16T06:33:39;16.50;99.90
41630;DHT22;27322;49.488;8.480;2022-10-16T06:36:07;16.50;99.90
41630;DHT22;27322;49.488;8.480;2022-10-16T06:38:33;16.50;99.90
41630;DHT22;27322;49.488;8.480;2022-10-16T06:40:59;16.50;99.90
41630;DHT22;27322;49.488;8.480;2022-10-16T06:43:25;16.50;99.90
41630;DHT22;27322;49.488;8.480;2022-10-16T06:45:55;16.50;99.90
41630;DHT22;27322;49.488;8.480;2022-10-16T06:48:21;16.50;99.90
41630;DHT22;27322;49.488;8.480;2022-10-16T06:50:59;16.50;99.90
41630;DHT22;27322;49.488;8.480;2022-10-16T06:53:28;16.50;99.90
41630;DHT22;27322;49.488;8.480;2022-10-16T06:55:54;16.50;99.90
41630;DHT22;27322;49.488;8.480;2022-10-16T06:58:20;16.40;99.90
41630;DHT22;27322;49.488;8.480;2022-10-16T07:00:46;16.50;99.90
41630;DHT22;27322;49.488;8.480;2022-10-16T07:03:12;16.50;99.90
41630;DHT22;27322;49.488;8.480;2022-10-16T07:05:42;16.50;99.90
41630;DHT22;27322;49.488;8.480;2022-10-16T07:08:08;16.50;99.90
41630;DHT22;27322;49.488;8.480;2022-10-16T07:10:34;16.70;99.90
41630;DHT22;27322;49.488;8.480;2022-10-16T07:13:00;17.00;99.90
41630;DHT22;27322;49.488;8.480;2022-10-16T07:15:26;17.20;99.90
41630;DHT22;27322;49.488;8.480;2022-10-16T07:17:52;17.50;99.90
41630;DHT22;27322;49.488;8.480;2022-10-16T07:20:17;17.80;99.90
41630;DHT22;27322;49.488;8.480;2022-10-16T07:22:43;18.00;99.90
41630;DHT22;27322;49.488;8.480;2022-10-16T07:25:09;18.10;99.90
41630;DHT22;27322;49.488;8.480;2022-10-16T07:27:34;18.10;99.90
41630;DHT22;27322;49.488;8.480;2022-10-16T07:30:00;18.20;99.90
41630;DHT22;27322;49.488;8.480;2022-10-16T07:32:26;18.30;99.90
41630;DHT22;27322;49.488;8.480;2022-10-16T07:34:52;18.30;99.90
41630;DHT22;27322;49.488;8.480;2022-10-16T07:37:18;18.40;99.90
41630;DHT22;27322;49.488;8.480;2022-10-16T07:39:44;18.40;99.90
41630;DHT22;27322;49.488;8.480;2022-10-16T07:42:09;18.50;99.90
41630;DHT22;27322;49.488;8.480;2022-10-16T07:44:35;18.50;99.90
41630;DHT22;27322;49.488;8.480;2022-10-16T07:47:01;18.40;99.90
41630;DHT22;27322;49.488;8.480;2022-10-16T07:49:27;18.30;99.90
41630;DHT22;27322;49.488;8.480;2022-10-16T07:51:52;18.20;99.90
41630;DHT22;27322;49.488;8.480;2022-10-16T07:54:18;18.10;99.90
41630;DHT22;27322;49.488;8.480;2022-10-16T07:56:43;18.00;99.90
41630;DHT22;27322;49.488;8.480;2022-10-16T07:59:09;17.80;99.90
41630;DHT22;27322;49.488;8.480;2022-10-16T08:01:35;18.00;99.90
41630;DHT22;27322;49.488;8.480;2022-10-16T08:04:00;18.20;99.90
41630;DHT22;27322;49.488;8.480;2022-10-16T08:06:26;18.20;99.90
41630;DHT22;27322;49.488;8.480;2022-10-16T08:08:51;18.30;99.90
41630;DHT22;27322;49.488;8.480;2022-10-16T08:11:17;18.30;99.90
41630;DHT22;27322;49.488;8.480;2022-10-16T08:13:43;18.20;99.90
41630;DHT22;27322;49.488;8.480;2022-10-16T08:16:09;18.20;99.90
41630;DHT22;27322;49.488;8.480;2022-10-16T08:18:39;18.20;99.90
41630;DHT22;27322;49.488;8.480;2022-10-16T08:21:06;18.20;99.90
41630;DHT22;27322;49.488;8.480;2022-10-16T08:23:33;18.00;99.90
41630;DHT22;27322;49.488;8.480;2022-10-16T08:26:04;17.80;99.90
41630;DHT22;27322;49.488;8.480;2022-10-16T08:28:30;17.90;99.90
41630;DHT22;27322;49.488;8.480;2022-10-16T08:30:56;17.90;99.90
41630;DHT22;27322;49.488;8.480;2022-10-16T08:33:22;18.10;99.90
41630;DHT22;27322;49.488;8.480;2022-10-16T08:35:53;18.20;99.90
41630;DHT22;27322;49.488;8.480;2022-10-16T08:38:20;18.20;99.90
41630;DHT22;27322;49.488;8.480;2022-10-16T08:40:45;18.20;99.90
41630;DHT22;27322;49.488;8.480;2022-10-16T08:43:24;18.30;99.90
41630;DHT22;27322;49.488;8.480;2022-10-16T08:46:06;18.50;99.90
41630;DHT22;27322;49.488;8.480;2022-10-16T08:48:50;18.50;99.90
41630;DHT22;27322;49.488;8.480;2022-10-16T08:51:23;18.70;99.90
41630;DHT22;27322;49.488;8.480;2022-10-16T08:54:01;18.80;99.90
41630;DHT22;27322;49.488;8.480;2022-10-16T08:56:28;18.50;99.90
41630;DHT22;27322;49.488;8.480;2022-10-16T08:58:54;18.20;99.90
41630;DHT22;27322;49.488;8.480;2022-10-16T09:01:22;17.90;99.90
41630;DHT22;27322;49.488;8.480;2022-10-16T09:06:45;17.50;99.90
41630;DHT22;27322;49.488;8.480;2022-10-16T09:20:42;18.10;99.90
41630;DHT22;27322;49.488;8.480;2022-10-16T09:23:28;18.20;99.90
41630;DHT22;27322;49.488;8.480;2022-10-16T09:25:55;18.10;99.90
41630;DHT22;27322;49.488;8.480;2022-10-16T09:28:21;17.90;99.90
41630;DHT22;27322;49.488;8.480;2022-10-16T09:30:47;17.80;99.90
41630;DHT22;27322;49.488;8.480;2022-10-16T09:33:18;17.90;99.90
41630;DHT22;27322;49.488;8.480;2022-10-16T09:35:46;18.10;99.90
41630;DHT22;27322;49.488;8.480;2022-10-16T09:38:29;18.20;99.90
41630;DHT22;27322;49.488;8.480;2022-10-16T09:40:56;18.30;99.90
41630;DHT22;27322;49.488;8.480;2022-10-16T09:46:26;18.30;99.90
41630;DHT22;27322;49.488;8.480;2022-10-16T09:48:59;18.40;99.90
41630;DHT22;27322;49.488;8.480;2022-10-16T09:51:36;18.40;99.90
41630;DHT22;27322;49.488;8.480;2022-10-16T09:56:33;18.40;99.90
41630;DHT22;27322;49.488;8.480;2022-10-16T09:59:02;18.40;99.90
41630;DHT22;27322;49.488;8.480;2022-10-16T10:01:48;18.30;99.90
41630;DHT22;27322;49.488;8.480;2022-10-16T10:04:17;18.40;99.90
41630;DHT22;27322;49.488;8.480;2022-10-16T10:17:14;18.70;99.90
41630;DHT22;27322;49.488;8.480;2022-10-16T10:19:49;18.80;99.90
41630;DHT22;27322;49.488;8.480;2022-10-16T10:33:48;18.40;99.90
41630;DHT22;27322;49.488;8.480;2022-10-16T10:39:00;18.20;99.90
41630;DHT22;27322;49.488;8.480;2022-10-16T10:44:27;18.00;99.90
41630;DHT22;27322;49.488;8.480;2022-10-16T10:50:14;17.90;99.90
41630;DHT22;27322;49.488;8.480;2022-10-16T10:55:40;17.90;99.90
41630;DHT22;27322;49.488;8.480;2022-10-16T11:06:29;18.20;99.90
41630;DHT22;27322;49.488;8.480;2022-10-16T11:08:59;18.30;99.90
41630;DHT22;27322;49.488;8.480;2022-10-16T11:14:30;18.40;99.90
41630;DHT22;27322;49.488;8.480;2022-10-16T11:17:24;18.60;99.90
41630;DHT22;27322;49.488;8.480;2022-10-16T11:19:58;18.80;99.90
41630;DHT22;27322;49.488;8.480;2022-10-16T11:22:39;19.00;99.90
41630;DHT22;27322;49.488;8.480;2022-10-16T11:25:26;19.10;99.90
41630;DHT22;27322;49.488;8.480;2022-10-16T11:28:03;19.20;99.90
41630;DHT22;27322;49.488;8.480;2022-10-16T11:30:39;19.20;99.90
41630;DHT22;27322;49.488;8.480;2022-10-16T11:33:37;19.20;99.90
41630;DHT22;27322;49.488;8.480;2022-10-16T11:38:53;19.20;99.90
41630;DHT22;27322;49.488;8.480;2022-10-16T11:41:41;19.20;99.90
41630;DHT22;27322;49.488;8.480;2022-10-16T11:44:38;19.20;99.90
41630;DHT22;27322;49.488;8.480;2022-10-16T11:47:16;19.20;99.90
41630;DHT22;27322;49.488;8.480;2022-10-16T11:49:46;19.20;99.90
41630;DHT22;27322;49.488;8.480;2022-10-16T11:52:33;19.20;99.90
41630;DHT22;27322;49.488;8.480;2022-10-16T11:55:12;19.20;99.90
41630;DHT22;27322;49.488;8.480;2022-10-16T11:57:49;19.10;99.90
41630;DHT22;27322;49.488;8.480;2022-10-16T12:03:20;19.00;99.90
41630;DHT22;27322;49.488;8.480;2022-10-16T12:08:16;19.00;99.90
41630;DHT22;27322;49.488;8.480;2022-10-16T12:10:44;19.00;99.90
41630;DHT22;27322;49.488;8.480;2022-10-16T12:18:40;19.10;99.90
41630;DHT22;27322;49.488;8.480;2022-10-16T12:21:07;19.10;99.90
41630;DHT22;27322;49.488;8.480;2022-10-16T12:23:37;19.10;99.90
41630;DHT22;27322;49.488;8.480;2022-10-16T12:26:03;19.10;99.90
41630;DHT22;27322;49.488;8.480;2022-10-16T12:28:31;19.20;99.90
41630;DHT22;27322;49.488;8.480;2022-10-16T12:31:01;19.20;99.90
41630;DHT22;27322;49.488;8.480;2022-10-16T12:33:29;19.30;99.90
41630;DHT22;27322;49.488;8.480;2022-10-16T12:35:55;19.30;99.90
41630;DHT22;27322;49.488;8.480;2022-10-16T12:38:38;19.40;99.90
41630;DHT22;27322;49.488;8.480;2022-10-16T12:41:11;19.50;99.90
41630;DHT22;27322;49.488;8.480;2022-10-16T12:43:46;19.60;99.90
41630;DHT22;27322;49.488;8.480;2022-10-16T12:48:40;19.60;99.90
41630;DHT22;27322;49.488;8.480;2022-10-16T13:05:01;19.10;99.90
41630;DHT22;27322;49.488;8.480;2022-10-16T13:10:33;19.10;99.90
41630;DHT22;27322;49.488;8.480;2022-10-16T13:18:33;18.90;99.90
41630;DHT22;27322;49.488;8.480;2022-10-16T13:21:41;18.80;99.90
41630;DHT22;27322;49.488;8.480;2022-10-16T13:27:11;18.60;99.90
41630;DHT22;27322;49.488;8.480;2022-10-16T13:29:39;18.60;99.90
41630;DHT22;27322;49.488;8.480;2022-10-16T13:32:11;18.60;99.90
41630;DHT22;27322;49.488;8.480;2022-10-16T13:34:48;18.60;99.90
41630;DHT22;27322;49.488;8.480;2022-10-16T13:37:32;18.50;99.90
41630;DHT22;27322;49.488;8.480;2022-10-16T13:40:23;18.50;99.90
41630;DHT22;27322;49.488;8.480;2022-10-16T13:42:50;18.40;99.90
41630;DHT22;27322;49.488;8.480;2022-10-16T13:45:22;18.40;99.90
41630;DHT22;27322;49.488;8.480;2022-10-16T13:47:48;18.40;99.90
41630;DHT22;27322;49.488;8.480;2022-10-16T13:50:16;18.40;99.90
41630;DHT22;27322;49.488;8.480;2022-10-16T13:52:43;18.50;99.90
41630;DHT22;27322;49.488;8.480;2022-10-16T13:55:12;18.50;99.90
41630;DHT22;27322;49.488;8.480;2022-10-16T13:57:38;18.50;99.90
41630;DHT22;27322;49.488;8.480;2022-10-16T14:00:21;18.50;99.90
41630;DHT22;27322;49.488;8.480;2022-10-16T14:02:55;18.50;99.90
41630;DHT22;27322;49.488;8.480;2022-10-16T14:05:22;18.50;99.90
41630;DHT22;27322;49.488;8.480;2022-10-16T14:07:50;18.50;99.90
41630;DHT22;27322;49.488;8.480;2022-10-16T14:15:26;18.40;99.90
41630;DHT22;27322;49.488;8.480;2022-10-16T14:17:53;18.40;99.90
41630;DHT22;27322;49.488;8.480;2022-10-16T14:20:24;18.40;99.90
41630;DHT22;27322;49.488;8.480;2022-10-16T14:22:59;18.40;99.90
41630;DHT22;27322;49.488;8.480;2022-10-16T14:25:28;18.40;99.90
41630;DHT22;27322;49.488;8.480;2022-10-16T14:30:26;18.30;99.90
41630;DHT22;27322;49.488;8.480;2022-10-16T14:35:44;18.20;99.90
41630;DHT22;27322;49.488;8.480;2022-10-16T14:38:18;18.20;99.90
41630;DHT22;27322;49.488;8.480;2022-10-16T14:40:47;18.20;99.90
41630;DHT22;27322;49.488;8.480;2022-10-16T14:43:37;18.20;99.90
41630;DHT22;27322;49.488;8.480;2022-10-16T14:46:17;18.20;99.90
41630;DHT22;27322;49.488;8.480;2022-10-16T14:48:49;18.20;99.90
41630;DHT22;27322;49.488;8.480;2022-10-16T14:51:19;18.10;99.90
41630;DHT22;27322;49.488;8.480;2022-10-16T14:53:45;18.10;99.90
41630;DHT22;27322;49.488;8.480;2022-10-16T14:56:24;18.10;99.90
41630;DHT22;27322;49.488;8.480;2022-10-16T14:58:50;18.10;99.90
41630;DHT22;27322;49.488;8.480;2022-10-16T15:01:17;18.20;99.90
41630;DHT22;27322;49.488;8.480;2022-10-16T15:03:43;18.50;99.90
41630;DHT22;27322;49.488;8.480;2022-10-16T15:06:13;18.70;99.90
41630;DHT22;27322;49.488;8.480;2022-10-16T15:08:39;18.80;99.90
41630;DHT22;27322;49.488;8.480;2022-10-16T15:11:08;18.90;99.90
41630;DHT22;27322;49.488;8.480;2022-10-16T15:13:35;19.00;99.90
41630;DHT22;27322;49.488;8.480;2022-10-16T15:16:01;19.10;99.90
41630;DHT22;27322;49.488;8.480;2022-10-16T15:18:26;19.10;99.90
41630;DHT22;27322;49.488;8.480;2022-10-16T15:20:52;19.10;99.90
41630;DHT22;27322;49.488;8.480;2022-10-16T15:23:19;19.20;99.90
41630;DHT22;27322;49.488;8.480;2022-10-16T15:28:17;19.20;99.90
41630;DHT22;27322;49.488;8.480;2022-10-16T15:30:43;19.00;99.90
41630;DHT22;27322;49.488;8.480;2022-10-16T15:33:17;18.90;99.90
41630;DHT22;27322;49.488;8.480;2022-10-16T15:35:46;18.70;99.90
41630;DHT22;27322;49.488;8.480;2022-10-16T15:38:13;18.60;99.90
41630;DHT22;27322;49.488;8.480;2022-10-16T15:40:39;18.50;99.90
41630;DHT22;27322;49.488;8.480;2022-10-16T15:43:05;18.40;99.90
41630;DHT22;27322;49.488;8.480;2022-10-16T15:45:31;18.30;99.90
41630;DHT22;27322;49.488;8.480;2022-10-16T15:47:56;18.20;99.90
41630;DHT22;27322;49.488;8.480;2022-10-16T15:50:22;18.20;99.90
41630;DHT22;27322;49.488;8.480;2022-10-16T15:52:49;18.10;99.90
41630;DHT22;27322;49.488;8.480;2022-10-16T15:55:15;18.10;99.90
41630;DHT22;27322;49.488;8.480;2022-10-16T15:57:41;18.10;99.90
41630;DHT22;27322;49.488;8.480;2022-10-16T16:00:10;18.10;99.90
41630;DHT22;27322;49.488;8.480;2022-10-16T16:02:36;18.00;99.90
41630;DHT22;27322;49.488;8.480;2022-10-16T16:05:02;18.00;99.90
41630;DHT22;27322;49.488;8.480;2022-10-16T16:07:31;18.00;99.90
41630;DHT22;27322;49.488;8.480;2022-10-16T16:09:57;18.00;99.90
41630;DHT22;27322;49.488;8.480;2022-10-16T16:12:23;18.00;99.90
41630;DHT22;27322;49.488;8.480;2022-10-16T16:14:48;17.90;99.90
41630;DHT22;27322;49.488;8.480;2022-10-16T16:17:14;17.90;99.90
41630;DHT22;27322;49.488;8.480;2022-10-16T16:19:40;17.90;99.90
41630;DHT22;27322;49.488;8.480;2022-10-16T16:22:05;17.90;99.90
41630;DHT22;27322;49.488;8.480;2022-10-16T16:24:31;17.80;99.90
41630;DHT22;27322;49.488;8.480;2022-10-16T16:26:57;17.80;99.90
41630;DHT22;27322;49.488;8.480;2022-10-16T16:29:22;17.80;99.90
41630;DHT22;27322;49.488;8.480;2022-10-16T16:31:48;17.70;99.90
41630;DHT22;27322;49.488;8.480;2022-10-16T16:34:14;17.70;99.90
41630;DHT22;27322;49.488;8.480;2022-10-16T16:36:40;17.70;99.90
41630;DHT22;27322;49.488;8.480;2022-10-16T16:39:06;17.70;99.90
41630;DHT22;27322;49.488;8.480;2022-10-16T16:41:33;17.90;99.90
41630;DHT22;27322;49.488;8.480;2022-10-16T16:44:07;18.10;99.90
41630;DHT22;27322;49.488;8.480;2022-10-16T16:46:34;18.20;99.90
41630;DHT22;27322;49.488;8.480;2022-10-16T16:49:00;18.10;99.90
41630;DHT22;27322;49.488;8.480;2022-10-16T16:51:26;18.00;99.90
41630;DHT22;27322;49.488;8.480;2022-10-16T16:53:53;17.90;99.90
41630;DHT22;27322;49.488;8.480;2022-10-16T16:56:20;17.80;99.90
41630;DHT22;27322;49.488;8.480;2022-10-16T16:58:47;17.70;99.90
41630;DHT22;27322;49.488;8.480;2022-10-16T17:01:13;17.60;99.90
41630;DHT22;27322;49.488;8.480;2022-10-16T17:03:42;17.60;99.90
41630;DHT22;27322;49.488;8.480;2022-10-16T17:06:12;17.60;99.90
41630;DHT22;27322;49.488;8.480;2022-10-16T17:08:40;17.50;99.90
41630;DHT22;27322;49.488;8.480;2022-10-16T17:11:06;17.50;99.90
41630;DHT22;27322;49.488;8.480;2022-10-16T17:13:36;17.40;99.90
41630;DHT22;27322;49.488;8.480;2022-10-16T17:16:04;17.40;99.90
41630;DHT22;27322;49.488;8.480;2022-10-16T17:18:30;17.40;99.90
41630;DHT22;27322;49.488;8.480;2022-10-16T17:20:59;17.50;99.90
41630;DHT22;27322;49.488;8.480;2022-10-16T17:23:25;17.60;99.90
41630;DHT22;27322;49.488;8.480;2022-10-16T17:25:51;17.60;99.90
41630;DHT22;27322;49.488;8.480;2022-10-16T17:28:17;17.50;99.90
41630;DHT22;27322;49.488;8.480;2022-10-16T17:30:43;17.40;99.90
41630;DHT22;27322;49.488;8.480;2022-10-16T17:33:10;17.30;99.90
41630;DHT22;27322;49.488;8.480;2022-10-16T17:35:44;17.30;99.90
41630;DHT22;27322;49.488;8.480;2022-10-16T17:38:10;17.30;99.90
41630;DHT22;27322;49.488;8.480;2022-10-16T17:40:37;17.20;99.90
41630;DHT22;27322;49.488;8.480;2022-10-16T17:43:03;17.20;99.90
41630;DHT22;27322;49.488;8.480;2022-10-16T17:45:29;17.10;99.90
41630;DHT22;27322;49.488;8.480;2022-10-16T17:47:55;17.10;99.90
41630;DHT22;27322;49.488;8.480;2022-10-16T17:50:20;17.20;99.90
41630;DHT22;27322;49.488;8.480;2022-10-16T17:52:46;17.30;99.90
41630;DHT22;27322;49.488;8.480;2022-10-16T17:55:12;17.30;99.90